createdAt,value
2018-08-30T00:05:11.114Z,95741.00
2018-08-30T00:10:40.344Z,95724.00
2018-08-30T00:16:09.595Z,95731.00
2018-08-30T00:21:38.870Z,95732.00
2018-08-30T00:27:09.028Z,95731.00
2018-08-30T00:32:38.328Z,95729.00
2018-08-30T00:38:07.655Z,95731.00
2018-08-30T00:43:37.248Z,95727.00
2018-08-30T00:49:06.566Z,95730.00
2018-08-30T00:54:36.079Z,95729.00
2018-08-30T01:00:06.013Z,95728.00
2018-08-30T01:05:35.792Z,95722.00
2018-08-30T01:11:06.055Z,95721.00
2018-08-30T01:16:36.113Z,95724.00
2018-08-30T01:22:05.396Z,95717.00
2018-08-30T01:27:34.668Z,95722.00
2018-08-30T01:33:03.902Z,95738.00
2018-08-30T01:38:33.265Z,95732.00
2018-08-30T01:44:02.766Z,95730.00
2018-08-30T01:49:31.948Z,95732.00
2018-08-30T01:55:01.349Z,95731.00
2018-08-30T02:00:30.643Z,95732.00
2018-08-30T02:05:59.868Z,95733.00
2018-08-30T02:11:29.568Z,95734.00
2018-08-30T02:16:58.836Z,95726.00
2018-08-30T02:22:28.204Z,95744.00
2018-08-30T02:27:57.431Z,95736.00
2018-08-30T02:33:26.679Z,95739.00
2018-08-30T02:38:55.921Z,95733.00
2018-08-30T02:44:25.107Z,95738.00
2018-08-30T02:49:54.333Z,95743.00
2018-08-30T02:55:23.596Z,95740.00
2018-08-30T03:00:52.835Z,95737.00
2018-08-30T03:06:21.992Z,95742.00
2018-08-30T03:11:51.160Z,95749.00
2018-08-30T03:17:20.374Z,95748.00
2018-08-30T03:22:49.635Z,95747.00
2018-08-30T03:28:18.920Z,95751.00
2018-08-30T03:33:48.262Z,95749.00
2018-08-30T03:39:17.468Z,95752.00
2018-08-30T03:44:46.836Z,95752.00
2018-08-30T03:50:16.128Z,95755.00
2018-08-30T03:55:45.382Z,95765.00
2018-08-30T04:01:14.597Z,95761.00
2018-08-30T04:06:43.840Z,95766.00
2018-08-30T04:12:13.139Z,95766.00
2018-08-30T04:17:42.468Z,95765.00
2018-08-30T04:23:11.719Z,95761.00
2018-08-30T04:28:41.166Z,95780.00
2018-08-30T04:34:10.464Z,95787.00
2018-08-30T04:39:39.974Z,95792.00
2018-08-30T04:45:09.536Z,95796.00
2018-08-30T04:50:39.052Z,95799.00
2018-08-30T04:56:08.540Z,95802.00
2018-08-30T05:01:37.860Z,95804.00
2018-08-30T05:07:07.327Z,95814.00
2018-08-30T05:12:36.683Z,95822.00
2018-08-30T05:18:06.079Z,95827.00
2018-08-30T05:23:35.792Z,95822.00
2018-08-30T05:29:05.185Z,95833.00
2018-08-30T05:34:34.611Z,95833.00
2018-08-30T05:40:04.947Z,95847.00
2018-08-30T05:45:34.372Z,95856.00
2018-08-30T05:51:03.647Z,95857.00
2018-08-30T05:56:32.856Z,95864.00
2018-08-30T06:02:02.336Z,95861.00
2018-08-30T06:07:31.657Z,95863.00
2018-08-30T06:13:00.920Z,95858.00
2018-08-30T06:18:30.199Z,95875.00
2018-08-30T06:23:59.424Z,95876.00
2018-08-30T06:29:28.647Z,95875.00
2018-08-30T06:34:58.025Z,95873.00
2018-08-30T06:40:27.275Z,95886.00
2018-08-30T06:45:56.512Z,95886.00
2018-08-30T06:51:25.788Z,95889.00
2018-08-30T06:56:55.031Z,95891.00
2018-08-30T07:02:24.301Z,95899.00
2018-08-30T07:07:53.660Z,95905.00
2018-08-30T07:13:22.862Z,95911.00
2018-08-30T07:18:52.165Z,95913.00
2018-08-30T07:24:21.484Z,95927.00
2018-08-30T07:29:50.740Z,95929.00
2018-08-30T07:35:20.055Z,95934.00
2018-08-30T07:40:49.350Z,95931.00
2018-08-30T07:46:18.595Z,95948.00
2018-08-30T07:51:48.008Z,95950.00
2018-08-30T07:57:17.252Z,95950.00
2018-08-30T08:02:47.390Z,95951.00
2018-08-30T08:08:16.847Z,95964.00
2018-08-30T08:13:47.362Z,95959.00
2018-08-30T08:19:17.159Z,95963.00
2018-08-30T08:24:46.431Z,95964.00
2018-08-30T08:30:15.642Z,95970.00
2018-08-30T08:35:44.951Z,95979.00
2018-08-30T08:41:14.184Z,95986.00
2018-08-30T08:46:43.460Z,95981.00
2018-08-30T08:52:12.721Z,95996.00
2018-08-30T08:57:42.011Z,95998.00
2018-08-30T09:03:11.356Z,95999.00
2018-08-30T09:08:40.617Z,95993.00
2018-08-30T09:14:10.023Z,96011.00
2018-08-30T09:19:39.431Z,96001.00
2018-08-30T09:25:08.910Z,96010.00
2018-08-30T09:30:38.323Z,96012.00
2018-08-30T09:36:07.687Z,96013.00
2018-08-30T09:41:37.092Z,96019.00
2018-08-30T09:47:07.284Z,96014.00
2018-08-30T09:52:36.640Z,96006.00
2018-08-30T09:58:06.149Z,96006.00
2018-08-30T10:03:35.509Z,96005.00
2018-08-30T10:09:07.140Z,96010.00
2018-08-30T10:14:36.477Z,96021.00
2018-08-30T10:20:05.871Z,96018.00
2018-08-30T10:25:35.228Z,96015.00
2018-08-30T10:31:04.788Z,96011.00
2018-08-30T10:36:34.113Z,96017.00
2018-08-30T10:42:04.451Z,96023.00
2018-08-30T10:47:33.720Z,96007.00
2018-08-30T10:53:03.026Z,96011.00
2018-08-30T10:58:32.289Z,96015.00
2018-08-30T11:04:01.751Z,96013.00
2018-08-30T11:09:31.017Z,96003.00
2018-08-30T11:15:00.366Z,96008.00
2018-08-30T11:20:29.675Z,96004.00
2018-08-30T11:25:58.942Z,95998.00
2018-08-30T11:31:28.154Z,96011.00
2018-08-30T11:36:57.347Z,96019.00
2018-08-30T11:42:26.757Z,96025.00
2018-08-30T11:47:56.320Z,96023.00
2018-08-30T11:53:25.643Z,96025.00
2018-08-30T11:58:54.894Z,96029.00
2018-08-30T12:04:24.392Z,96031.00
2018-08-30T12:09:53.640Z,96035.00
2018-08-30T12:15:23.418Z,96035.00
2018-08-30T12:20:52.646Z,96043.00
2018-08-30T12:26:21.949Z,96043.00
2018-08-30T12:31:51.249Z,96039.00
2018-08-30T12:37:20.384Z,96045.00
2018-08-30T12:42:49.833Z,96041.00
2018-08-30T12:48:19.080Z,96050.00
2018-08-30T12:53:48.424Z,96044.00
2018-08-30T12:59:18.901Z,96045.00
2018-08-30T13:04:48.251Z,96044.00
2018-08-30T13:10:17.606Z,96038.00
2018-08-30T13:15:46.728Z,96047.00
2018-08-30T13:21:16.066Z,96050.00
2018-08-30T13:26:45.573Z,96055.00
2018-08-30T13:32:15.799Z,96050.00
2018-08-30T13:37:46.948Z,96059.00
2018-08-30T13:43:16.277Z,96058.00
2018-08-30T13:48:45.889Z,96050.00
2018-08-30T13:54:15.303Z,96042.00
2018-08-30T13:59:44.714Z,96045.00
2018-08-30T14:05:14.637Z,96046.00
2018-08-30T14:10:43.971Z,96051.00
2018-08-30T14:16:13.321Z,96057.00
2018-08-30T14:21:42.699Z,96054.00
2018-08-30T14:27:12.127Z,96053.00
2018-08-30T14:32:41.417Z,96046.00
2018-08-30T14:38:10.828Z,96048.00
2018-08-30T14:43:40.115Z,96045.00
2018-08-30T14:49:09.534Z,96045.00
2018-08-30T14:54:39.073Z,96038.00
2018-08-30T15:00:09.649Z,96053.00
2018-08-30T15:05:41.086Z,96047.00
2018-08-30T15:11:10.578Z,96049.00
2018-08-30T15:16:39.920Z,96057.00
2018-08-30T15:22:09.438Z,96064.00
2018-08-30T15:27:39.002Z,96069.00
2018-08-30T15:33:08.525Z,96061.00
2018-08-30T15:38:37.974Z,96065.00
2018-08-30T15:44:07.624Z,96068.00
2018-08-30T15:49:37.023Z,96070.00
2018-08-30T15:55:06.605Z,96071.00
2018-08-30T16:00:36.390Z,96068.00
2018-08-30T16:06:06.167Z,96067.00
2018-08-30T16:11:35.685Z,96059.00
2018-08-30T16:17:05.111Z,96064.00
2018-08-30T16:23:43.172Z,96056.00
2018-08-30T16:29:12.876Z,96053.00
2018-08-30T16:34:44.115Z,96053.00
2018-08-30T16:40:14.055Z,96060.00
2018-08-30T16:45:43.887Z,96053.00
2018-08-30T16:51:15.172Z,96053.00
2018-08-30T16:56:44.443Z,96056.00
2018-08-30T17:02:14.993Z,96054.00
2018-08-30T17:07:45.348Z,96051.00
2018-08-30T17:13:14.604Z,96052.00
2018-08-30T17:18:48.076Z,96053.00
2018-08-30T17:24:22.968Z,96048.00
2018-08-30T17:29:52.197Z,96044.00
2018-08-30T17:35:21.678Z,96046.00
2018-08-30T17:40:51.495Z,96042.00
2018-08-30T17:46:21.829Z,96039.00
2018-08-30T17:51:52.211Z,96048.00
2018-08-30T17:57:22.034Z,96055.00
2018-08-30T18:02:51.451Z,96057.00
2018-08-30T18:08:20.775Z,96064.00
2018-08-30T18:13:50.546Z,96069.00
2018-08-30T18:19:19.762Z,96071.00
2018-08-30T18:24:49.482Z,96076.00
2018-08-30T18:30:20.013Z,96075.00
2018-08-30T18:35:49.343Z,96085.00
2018-08-30T18:41:18.646Z,96080.00
2018-08-30T18:46:49.045Z,96086.00
2018-08-30T18:52:18.442Z,96096.00
2018-08-30T18:57:48.063Z,96096.00
2018-08-30T19:03:17.464Z,96095.00
2018-08-30T19:08:47.827Z,96098.00
2018-08-30T19:14:17.313Z,96081.00
2018-08-30T19:19:46.691Z,96096.00
2018-08-30T19:25:20.312Z,96100.00
2018-08-30T19:30:49.635Z,96111.00
2018-08-30T19:36:24.319Z,96106.00
2018-08-30T19:41:53.758Z,96104.00
2018-08-30T19:47:23.059Z,96106.00
2018-08-30T19:52:53.852Z,96106.00
2018-08-30T19:58:23.348Z,96103.00
2018-08-30T20:03:52.735Z,96112.00
2018-08-30T20:09:22.473Z,96108.00
2018-08-30T20:14:52.509Z,96107.00
2018-08-30T20:20:22.911Z,96113.00
2018-08-30T20:25:52.524Z,96113.00
2018-08-30T20:31:22.042Z,96121.00
2018-08-30T20:36:51.392Z,96108.00
2018-08-30T20:42:20.827Z,96099.00
2018-08-30T20:47:51.605Z,96105.00
2018-08-30T20:53:21.361Z,96106.00
2018-08-30T20:58:51.733Z,96109.00
2018-08-30T21:04:23.737Z,96106.00
2018-08-30T21:09:53.020Z,96107.00
2018-08-30T21:15:23.453Z,96088.00
2018-08-30T21:20:53.117Z,96080.00
2018-08-30T21:26:22.675Z,96084.00
2018-08-30T21:31:52.196Z,96082.00
2018-08-30T21:37:21.664Z,96083.00
2018-08-30T21:42:51.081Z,96074.00
2018-08-30T21:48:20.929Z,96080.00
2018-08-30T21:53:50.456Z,96077.00
2018-08-30T21:59:19.727Z,96082.00
2018-08-30T22:04:49.179Z,96078.00
2018-08-30T22:10:19.192Z,96077.00
2018-08-30T22:15:48.459Z,96071.00
2018-08-30T22:21:17.759Z,96073.00
2018-08-30T22:26:47.037Z,96062.00
2018-08-30T22:32:16.392Z,96074.00
2018-08-30T22:37:45.655Z,96058.00
2018-08-30T22:43:14.946Z,96050.00
2018-08-30T22:48:44.392Z,96032.00
2018-08-30T22:54:14.691Z,96035.00
2018-08-30T22:59:44.007Z,96033.00
2018-08-30T23:05:13.303Z,96028.00
2018-08-30T23:10:42.606Z,96025.00
2018-08-30T23:16:12.039Z,96011.00
2018-08-30T23:21:41.344Z,96003.00
2018-08-30T23:27:11.345Z,95996.00
2018-08-30T23:32:40.691Z,95986.00
2018-08-30T23:38:09.993Z,95998.00
2018-08-30T23:43:39.362Z,95995.00
2018-08-30T23:49:08.760Z,95991.00
2018-08-30T23:54:38.851Z,95994.00
